sensor_id;sensor_type;location;lat;lon;timestamp;P1;durP1;ratioP1;P2;durP2;ratioP2
26838;SDS011;40088;51.214;6.786;2023-06-10T00:00:38;4.57;;;4.13;;
26838;SDS011;40088;51.214;6.786;2023-06-10T00:10:41;8.07;;;6.00;;
26838;SDS011;40088;51.214;6.786;2023-06-10T00:20:41;4.78;;;4.35;;
26838;SDS011;40088;51.214;6.786;2023-06-10T00:30:42;5.13;;;4.63;;
26838;SDS011;40088;51.214;6.786;2023-06-10T00:40:42;5.05;;;4.55;;
26838;SDS011;40088;51.214;6.786;2023-06-10T00:50:43;6.05;;;5.25;;
26838;SDS011;40088;51.214;6.786;2023-06-10T01:00:43;5.22;;;4.75;;
26838;SDS011;40088;51.214;6.786;2023-06-10T01:10:48;6.07;;;5.47;;
26838;SDS011;40088;51.214;6.786;2023-06-10T01:20:53;5.30;;;4.80;;
26838;SDS011;40088;51.214;6.786;2023-06-10T01:41:03;8.35;;;5.22;;
26838;SDS011;40088;51.214;6.786;2023-06-10T01:51:04;5.93;;;5.32;;
26838;SDS011;40088;51.214;6.786;2023-06-10T02:11:27;6.82;;;6.18;;
26838;SDS011;40088;51.214;6.786;2023-06-10T02:21:27;5.38;;;4.88;;
26838;SDS011;40088;51.214;6.786;2023-06-10T02:31:28;6.47;;;5.68;;
26838;SDS011;40088;51.214;6.786;2023-06-10T02:41:28;7.55;;;5.80;;
26838;SDS011;40088;51.214;6.786;2023-06-10T02:51:29;6.75;;;5.88;;
26838;SDS011;40088;51.214;6.786;2023-06-10T03:01:29;8.75;;;5.80;;
26838;SDS011;40088;51.214;6.786;2023-06-10T03:11:31;5.65;;;5.15;;
26838;SDS011;40088;51.214;6.786;2023-06-10T03:21:31;6.20;;;5.40;;
26838;SDS011;40088;51.214;6.786;2023-06-10T03:31:32;6.00;;;5.40;;
26838;SDS011;40088;51.214;6.786;2023-06-10T03:41:32;6.88;;;5.88;;
26838;SDS011;40088;51.214;6.786;2023-06-10T03:51:32;7.68;;;6.25;;
26838;SDS011;40088;51.214;6.786;2023-06-10T04:01:33;8.23;;;5.90;;
26838;SDS011;40088;51.214;6.786;2023-06-10T04:11:35;6.20;;;5.60;;
26838;SDS011;40088;51.214;6.786;2023-06-10T04:21:36;7.88;;;5.75;;
26838;SDS011;40088;51.214;6.786;2023-06-10T04:31:36;5.97;;;5.47;;
26838;SDS011;40088;51.214;6.786;2023-06-10T04:41:36;6.97;;;6.28;;
26838;SDS011;40088;51.214;6.786;2023-06-10T04:51:37;7.70;;;5.60;;
26838;SDS011;40088;51.214;6.786;2023-06-10T05:01:37;6.45;;;5.85;;
26838;SDS011;40088;51.214;6.786;2023-06-10T05:11:38;7.45;;;6.03;;
26838;SDS011;40088;51.214;6.786;2023-06-10T05:21:38;7.65;;;6.90;;
26838;SDS011;40088;51.214;6.786;2023-06-10T05:31:38;7.05;;;6.32;;
26838;SDS011;40088;51.214;6.786;2023-06-10T05:41:38;7.07;;;6.13;;
26838;SDS011;40088;51.214;6.786;2023-06-10T05:51:39;6.80;;;6.10;;
26838;SDS011;40088;51.214;6.786;2023-06-10T06:01:39;7.35;;;6.65;;
26838;SDS011;40088;51.214;6.786;2023-06-10T06:11:40;6.60;;;5.93;;
26838;SDS011;40088;51.214;6.786;2023-06-10T06:21:41;7.05;;;6.35;;
26838;SDS011;40088;51.214;6.786;2023-06-10T06:31:41;8.23;;;6.07;;
26838;SDS011;40088;51.214;6.786;2023-06-10T06:41:41;7.35;;;6.55;;
26838;SDS011;40088;51.214;6.786;2023-06-10T06:51:42;6.50;;;5.82;;
26838;SDS011;40088;51.214;6.786;2023-06-10T07:01:42;6.43;;;5.80;;
26838;SDS011;40088;51.214;6.786;2023-06-10T07:11:42;7.22;;;6.38;;
26838;SDS011;40088;51.214;6.786;2023-06-10T07:21:42;6.55;;;5.95;;
26838;SDS011;40088;51.214;6.786;2023-06-10T07:31:43;8.23;;;5.82;;
26838;SDS011;40088;51.214;6.786;2023-06-10T07:41:43;6.78;;;6.18;;
26838;SDS011;40088;51.214;6.786;2023-06-10T07:51:43;7.68;;;5.93;;
26838;SDS011;40088;51.214;6.786;2023-06-10T08:01:44;6.53;;;5.88;;
26838;SDS011;40088;51.214;6.786;2023-06-10T08:11:46;6.32;;;5.72;;
26838;SDS011;40088;51.214;6.786;2023-06-10T08:21:46;6.18;;;5.57;;
26838;SDS011;40088;51.214;6.786;2023-06-10T08:31:47;5.72;;;5.13;;
26838;SDS011;40088;51.214;6.786;2023-06-10T08:41:50;6.22;;;5.63;;
26838;SDS011;40088;51.214;6.786;2023-06-10T08:52:15;6.10;;;5.50;;
26838;SDS011;40088;51.214;6.786;2023-06-10T09:02:17;5.68;;;5.18;;
26838;SDS011;40088;51.214;6.786;2023-06-10T09:12:19;4.35;;;3.95;;
26838;SDS011;40088;51.214;6.786;2023-06-10T09:22:20;5.65;;;5.13;;
26838;SDS011;40088;51.214;6.786;2023-06-10T09:32:24;6.10;;;5.38;;
26838;SDS011;40088;51.214;6.786;2023-06-10T09:42:25;5.43;;;4.82;;
26838;SDS011;40088;51.214;6.786;2023-06-10T09:52:26;5.47;;;4.97;;
26838;SDS011;40088;51.214;6.786;2023-06-10T10:02:27;4.38;;;3.78;;
26838;SDS011;40088;51.214;6.786;2023-06-10T10:12:28;6.03;;;5.47;;
26838;SDS011;40088;51.214;6.786;2023-06-10T10:22:30;6.00;;;5.28;;
26838;SDS011;40088;51.214;6.786;2023-06-10T10:32:37;6.18;;;5.57;;
26838;SDS011;40088;51.214;6.786;2023-06-10T10:42:42;5.15;;;4.65;;
26838;SDS011;40088;51.214;6.786;2023-06-10T10:52:56;6.17;;;5.17;;
26838;SDS011;40088;51.214;6.786;2023-06-10T11:03:13;7.03;;;5.00;;
26838;SDS011;40088;51.214;6.786;2023-06-10T11:13:15;5.57;;;5.07;;
26838;SDS011;40088;51.214;6.786;2023-06-10T11:23:25;5.40;;;4.83;;
26838;SDS011;40088;51.214;6.786;2023-06-10T11:33:28;6.00;;;5.20;;
26838;SDS011;40088;51.214;6.786;2023-06-10T11:43:28;5.75;;;4.90;;
26838;SDS011;40088;51.214;6.786;2023-06-10T11:53:30;6.22;;;5.63;;
26838;SDS011;40088;51.214;6.786;2023-06-10T12:03:37;7.80;;;6.00;;
26838;SDS011;40088;51.214;6.786;2023-06-10T12:13:38;9.43;;;6.30;;
26838;SDS011;40088;51.214;6.786;2023-06-10T12:24:04;6.60;;;5.95;;
26838;SDS011;40088;51.214;6.786;2023-06-10T12:34:08;7.82;;;6.03;;
26838;SDS011;40088;51.214;6.786;2023-06-10T12:44:09;9.07;;;6.38;;
26838;SDS011;40088;51.214;6.786;2023-06-10T12:54:09;6.60;;;5.85;;
26838;SDS011;40088;51.214;6.786;2023-06-10T13:04:09;7.15;;;6.13;;
26838;SDS011;40088;51.214;6.786;2023-06-10T13:14:10;6.05;;;5.38;;
26838;SDS011;40088;51.214;6.786;2023-06-10T13:24:10;6.07;;;5.47;;
26838;SDS011;40088;51.214;6.786;2023-06-10T13:34:10;8.70;;;5.55;;
26838;SDS011;40088;51.214;6.786;2023-06-10T13:44:11;6.95;;;5.32;;
26838;SDS011;40088;51.214;6.786;2023-06-10T13:54:11;5.43;;;4.70;;
26838;SDS011;40088;51.214;6.786;2023-06-10T14:04:14;7.70;;;5.80;;
26838;SDS011;40088;51.214;6.786;2023-06-10T14:14:14;7.20;;;5.05;;
26838;SDS011;40088;51.214;6.786;2023-06-10T14:24:14;6.10;;;5.40;;
26838;SDS011;40088;51.214;6.786;2023-06-10T14:34:16;5.57;;;5.00;;
26838;SDS011;40088;51.214;6.786;2023-06-10T14:44:16;5.38;;;4.88;;
26838;SDS011;40088;51.214;6.786;2023-06-10T14:54:16;8.50;;;5.13;;
26838;SDS011;40088;51.214;6.786;2023-06-10T15:04:17;6.03;;;5.38;;
26838;SDS011;40088;51.214;6.786;2023-06-10T15:14:17;5.30;;;4.78;;
26838;SDS011;40088;51.214;6.786;2023-06-10T15:24:18;5.47;;;4.80;;
26838;SDS011;40088;51.214;6.786;2023-06-10T15:34:18;6.90;;;5.67;;
26838;SDS011;40088;51.214;6.786;2023-06-10T15:44:19;5.60;;;5.05;;
26838;SDS011;40088;51.214;6.786;2023-06-10T15:54:19;6.38;;;5.13;;
26838;SDS011;40088;51.214;6.786;2023-06-10T16:04:19;6.40;;;5.25;;
26838;SDS011;40088;51.214;6.786;2023-06-10T16:14:20;6.60;;;4.78;;
26838;SDS011;40088;51.214;6.786;2023-06-10T16:24:21;6.00;;;5.40;;
26838;SDS011;40088;51.214;6.786;2023-06-10T16:34:21;4.97;;;4.47;;
26838;SDS011;40088;51.214;6.786;2023-06-10T16:44:21;5.32;;;4.82;;
26838;SDS011;40088;51.214;6.786;2023-06-10T16:54:22;5.78;;;5.18;;
26838;SDS011;40088;51.214;6.786;2023-06-10T17:04:22;5.35;;;4.82;;
26838;SDS011;40088;51.214;6.786;2023-06-10T17:14:22;5.47;;;4.82;;
26838;SDS011;40088;51.214;6.786;2023-06-10T17:24:26;4.72;;;4.32;;
26838;SDS011;40088;51.214;6.786;2023-06-10T17:34:27;5.88;;;5.22;;
26838;SDS011;40088;51.214;6.786;2023-06-10T17:44:27;5.45;;;4.82;;
26838;SDS011;40088;51.214;6.786;2023-06-10T17:54:28;5.07;;;4.50;;
26838;SDS011;40088;51.214;6.786;2023-06-10T18:04:28;5.72;;;5.13;;
26838;SDS011;40088;51.214;6.786;2023-06-10T18:14:29;6.65;;;5.38;;
26838;SDS011;40088;51.214;6.786;2023-06-10T18:24:29;6.50;;;4.93;;
26838;SDS011;40088;51.214;6.786;2023-06-10T18:34:29;5.60;;;4.95;;
26838;SDS011;40088;51.214;6.786;2023-06-10T18:44:29;6.72;;;4.93;;
26838;SDS011;40088;51.214;6.786;2023-06-10T18:54:30;5.07;;;4.57;;
26838;SDS011;40088;51.214;6.786;2023-06-10T19:04:30;6.60;;;4.82;;
26838;SDS011;40088;51.214;6.786;2023-06-10T19:14:31;5.47;;;4.93;;
26838;SDS011;40088;51.214;6.786;2023-06-10T19:24:31;5.10;;;4.60;;
26838;SDS011;40088;51.214;6.786;2023-06-10T19:34:31;5.32;;;4.82;;
26838;SDS011;40088;51.214;6.786;2023-06-10T19:44:31;5.47;;;4.75;;
26838;SDS011;40088;51.214;6.786;2023-06-10T19:54:32;5.32;;;4.68;;
26838;SDS011;40088;51.214;6.786;2023-06-10T20:04:33;6.00;;;4.85;;
26838;SDS011;40088;51.214;6.786;2023-06-10T20:14:33;6.03;;;5.40;;
26838;SDS011;40088;51.214;6.786;2023-06-10T20:24:34;5.82;;;5.07;;
26838;SDS011;40088;51.214;6.786;2023-06-10T20:34:35;4.90;;;4.38;;
26838;SDS011;40088;51.214;6.786;2023-06-10T20:44:35;5.38;;;4.88;;
26838;SDS011;40088;51.214;6.786;2023-06-10T20:54:35;5.40;;;4.90;;
26838;SDS011;40088;51.214;6.786;2023-06-10T21:04:36;5.65;;;4.72;;
26838;SDS011;40088;51.214;6.786;2023-06-10T21:14:36;5.97;;;4.88;;
26838;SDS011;40088;51.214;6.786;2023-06-10T21:24:36;4.72;;;4.25;;
26838;SDS011;40088;51.214;6.786;2023-06-10T21:34:37;5.35;;;4.85;;
26838;SDS011;40088;51.214;6.786;2023-06-10T21:44:38;5.18;;;4.53;;
26838;SDS011;40088;51.214;6.786;2023-06-10T21:54:38;5.47;;;4.97;;
26838;SDS011;40088;51.214;6.786;2023-06-10T22:04:38;5.05;;;4.55;;
26838;SDS011;40088;51.214;6.786;2023-06-10T22:14:39;6.75;;;5.00;;
26838;SDS011;40088;51.214;6.786;2023-06-10T22:24:40;5.15;;;4.50;;
26838;SDS011;40088;51.214;6.786;2023-06-10T22:34:40;4.90;;;4.40;;
26838;SDS011;40088;51.214;6.786;2023-06-10T22:44:41;5.43;;;4.93;;
26838;SDS011;40088;51.214;6.786;2023-06-10T22:54:41;5.05;;;4.53;;
26838;SDS011;40088;51.214;6.786;2023-06-10T23:04:42;4.90;;;4.50;;
26838;SDS011;40088;51.214;6.786;2023-06-10T23:14:42;5.43;;;4.78;;
26838;SDS011;40088;51.214;6.786;2023-06-10T23:24:42;5.10;;;4.60;;
26838;SDS011;40088;51.214;6.786;2023-06-10T23:34:44;5.57;;;4.88;;
26838;SDS011;40088;51.214;6.786;2023-06-10T23:44:44;4.63;;;4.22;;
26838;SDS011;40088;51.214;6.786;2023-06-10T23:54:45;6.03;;;4.80;;
